createdAt,value
2018-10-07T00:00:11.938Z,58.09
2018-10-07T00:02:39.614Z,58.03
2018-10-07T00:05:07.215Z,58.11
2018-10-07T00:07:34.909Z,58.16
2018-10-07T00:10:02.479Z,58.01
2018-10-07T00:12:30.076Z,58.05
2018-10-07T00:14:57.764Z,58.10
2018-10-07T00:17:25.439Z,58.16
2018-10-07T00:19:53.050Z,58.18
2018-10-07T00:22:20.644Z,58.21
2018-10-07T00:24:48.258Z,58.09
2018-10-07T00:27:15.877Z,58.13
2018-10-07T00:29:43.574Z,58.04
2018-10-07T00:32:13.096Z,58.16
2018-10-07T00:34:40.701Z,58.45
2018-10-07T00:37:08.403Z,58.37
2018-10-07T00:39:36.081Z,58.22
2018-10-07T00:42:03.746Z,58.28
2018-10-07T00:44:31.360Z,58.26
2018-10-07T00:46:59.009Z,58.34
2018-10-07T00:49:26.724Z,58.39
2018-10-07T00:51:54.323Z,58.28
2018-10-07T00:54:21.978Z,58.29
2018-10-07T00:56:49.617Z,58.43
2018-10-07T00:59:17.227Z,58.36
2018-10-07T01:01:44.830Z,58.40
2018-10-07T01:04:12.440Z,58.59
2018-10-07T01:06:40.109Z,58.57
2018-10-07T01:09:09.203Z,58.59
2018-10-07T01:11:36.909Z,58.59
2018-10-07T01:14:04.627Z,58.56
2018-10-07T01:16:32.309Z,58.48
2018-10-07T01:18:59.999Z,58.72
2018-10-07T01:21:27.736Z,58.56
2018-10-07T01:23:55.372Z,58.46
2018-10-07T01:26:22.979Z,58.69
2018-10-07T01:28:50.620Z,58.93
2018-10-07T01:31:18.217Z,58.73
2018-10-07T01:33:45.833Z,58.67
2018-10-07T01:36:13.506Z,58.57
2018-10-07T01:38:41.164Z,58.72
2018-10-07T01:41:08.768Z,58.72
2018-10-07T01:43:36.400Z,59.11
2018-10-07T01:46:04.044Z,58.98
2018-10-07T01:48:31.673Z,59.20
2018-10-07T01:50:59.267Z,58.91
2018-10-07T01:53:26.867Z,59.09
2018-10-07T01:55:54.609Z,59.05
2018-10-07T01:58:22.204Z,58.83
2018-10-07T02:00:49.840Z,58.97
2018-10-07T02:03:17.445Z,58.94
2018-10-07T02:05:45.114Z,58.93
2018-10-07T02:08:12.816Z,59.11
2018-10-07T02:10:40.477Z,59.15
2018-10-07T02:13:08.065Z,59.20
2018-10-07T02:15:35.796Z,59.17
2018-10-07T02:18:03.404Z,59.10
2018-10-07T02:20:30.969Z,59.12
2018-10-07T02:22:58.630Z,59.17
2018-10-07T02:25:26.357Z,59.34
2018-10-07T02:27:53.952Z,59.41
2018-10-07T02:30:21.539Z,59.00
2018-10-07T02:32:49.143Z,59.03
2018-10-07T02:35:16.736Z,59.12
2018-10-07T02:37:44.400Z,59.05
2018-10-07T02:40:12.011Z,59.03
2018-10-07T02:42:39.666Z,59.40
2018-10-07T02:45:07.328Z,59.28
2018-10-07T02:47:35.013Z,59.19
2018-10-07T02:50:10.465Z,59.27
2018-10-07T02:52:43.567Z,59.17
2018-10-07T02:55:11.245Z,59.18
2018-10-07T02:57:38.887Z,59.25
2018-10-07T03:00:06.494Z,59.41
2018-10-07T03:02:34.161Z,59.31
2018-10-07T03:05:01.779Z,59.19
2018-10-07T03:07:29.412Z,59.25
2018-10-07T03:09:57.052Z,59.30
2018-10-07T03:12:24.695Z,59.19
2018-10-07T03:14:52.278Z,59.18
2018-10-07T03:17:19.868Z,59.45
2018-10-07T03:19:47.435Z,59.39
2018-10-07T03:22:15.068Z,59.20
2018-10-07T03:24:42.713Z,59.29
2018-10-07T03:27:10.486Z,59.29
2018-10-07T03:29:38.116Z,59.73
2018-10-07T03:32:05.873Z,59.43
2018-10-07T03:34:33.537Z,59.32
2018-10-07T03:37:01.109Z,59.51
2018-10-07T03:39:28.796Z,59.55
2018-10-07T03:41:56.607Z,59.29
2018-10-07T03:44:27.360Z,59.53
2018-10-07T03:46:55.408Z,59.50
2018-10-07T03:49:23.004Z,59.53
2018-10-07T03:51:50.652Z,59.47
2018-10-07T03:54:18.215Z,59.06
2018-10-07T03:56:45.861Z,59.42
2018-10-07T03:59:13.508Z,59.59
2018-10-07T04:01:41.162Z,59.35
2018-10-07T04:04:08.766Z,59.77
2018-10-07T04:06:36.451Z,59.44
2018-10-07T04:09:05.821Z,59.33
2018-10-07T04:11:33.396Z,59.45
2018-10-07T04:14:01.032Z,59.75
2018-10-07T04:16:28.642Z,59.54
2018-10-07T04:18:56.300Z,59.56
2018-10-07T04:21:23.883Z,59.62
2018-10-07T04:23:51.528Z,59.73
2018-10-07T04:26:19.218Z,59.27
2018-10-07T04:28:46.821Z,59.98
2018-10-07T04:31:14.471Z,59.23
2018-10-07T04:33:42.072Z,59.30
2018-10-07T04:36:09.733Z,59.65
2018-10-07T04:38:37.609Z,59.63
2018-10-07T04:41:05.557Z,59.66
2018-10-07T04:43:33.171Z,59.23
2018-10-07T04:46:00.842Z,59.57
2018-10-07T04:48:28.521Z,59.62
2018-10-07T04:50:56.120Z,59.52
2018-10-07T04:53:23.787Z,60.01
2018-10-07T04:55:51.386Z,59.08
2018-10-07T04:58:18.997Z,59.48
2018-10-07T05:00:46.659Z,59.86
2018-10-07T05:03:14.456Z,60.06
2018-10-07T05:05:42.079Z,59.41
2018-10-07T05:08:09.703Z,59.43
2018-10-07T05:10:46.161Z,59.98
2018-10-07T05:13:16.855Z,59.48
2018-10-07T05:15:45.372Z,60.00
2018-10-07T05:18:12.971Z,59.41
2018-10-07T05:20:40.688Z,59.65
2018-10-07T05:23:08.268Z,59.87
2018-10-07T05:25:35.927Z,60.16
2018-10-07T05:28:03.786Z,59.70
2018-10-07T05:30:31.449Z,59.46
2018-10-07T05:32:59.027Z,59.51
2018-10-07T05:35:26.831Z,59.90
2018-10-07T05:37:54.556Z,59.65
2018-10-07T05:40:22.173Z,59.95
2018-10-07T05:42:49.754Z,59.65
2018-10-07T05:45:17.353Z,59.77
2018-10-07T05:47:45.015Z,59.24
2018-10-07T05:50:12.634Z,60.00
2018-10-07T05:52:40.466Z,59.17
2018-10-07T05:55:08.202Z,59.61
2018-10-07T05:57:35.776Z,59.36
2018-10-07T06:00:03.421Z,59.53
2018-10-07T06:02:31.046Z,59.74
2018-10-07T06:04:59.157Z,59.72
2018-10-07T06:07:27.999Z,59.45
2018-10-07T06:09:55.647Z,59.16
2018-10-07T06:12:23.293Z,59.65
2018-10-07T06:15:02.406Z,59.47
2018-10-07T06:17:29.963Z,59.44
2018-10-07T06:19:57.572Z,59.38
2018-10-07T06:22:25.621Z,59.16
2018-10-07T06:24:53.207Z,59.30
2018-10-07T06:27:20.868Z,59.00
2018-10-07T06:29:48.534Z,59.20
2018-10-07T06:32:16.123Z,59.51
2018-10-07T06:34:43.732Z,59.27
2018-10-07T06:37:11.412Z,59.46
2018-10-07T06:39:39.060Z,59.01
2018-10-07T06:42:06.836Z,59.35
2018-10-07T06:44:34.452Z,59.40
2018-10-07T06:47:02.068Z,59.19
2018-10-07T06:49:29.726Z,59.16
2018-10-07T06:51:57.316Z,59.09
2018-10-07T06:54:24.892Z,59.09
2018-10-07T06:56:52.508Z,59.03
2018-10-07T06:59:20.152Z,59.07
2018-10-07T07:01:47.822Z,58.89
2018-10-07T07:04:15.525Z,58.63
2018-10-07T07:06:43.176Z,58.87
2018-10-07T07:09:11.320Z,58.77
2018-10-07T07:11:39.078Z,58.78
2018-10-07T07:14:06.657Z,59.32
2018-10-07T07:16:34.356Z,58.65
2018-10-07T07:19:01.935Z,58.67
2018-10-07T07:21:29.621Z,59.00
2018-10-07T07:23:57.240Z,58.82
2018-10-07T07:26:25.097Z,58.95
2018-10-07T07:28:52.759Z,58.48
2018-10-07T07:31:20.354Z,58.55
2018-10-07T07:33:47.996Z,58.47
2018-10-07T07:36:15.632Z,58.46
2018-10-07T07:38:43.316Z,58.64
2018-10-07T07:41:10.971Z,58.44
2018-10-07T07:43:38.990Z,58.41
2018-10-07T07:46:06.619Z,58.17
2018-10-07T07:48:34.302Z,58.25
2018-10-07T07:51:01.946Z,58.26
2018-10-07T07:53:29.592Z,57.84
2018-10-07T07:55:57.220Z,58.18
2018-10-07T07:58:24.955Z,58.27
2018-10-07T08:00:52.597Z,58.17
2018-10-07T08:03:20.197Z,58.26
2018-10-07T08:05:47.823Z,58.04
2018-10-07T08:08:15.468Z,58.17
2018-10-07T08:10:43.104Z,57.92
2018-10-07T08:13:10.708Z,58.23
2018-10-07T08:15:38.385Z,58.04
2018-10-07T08:18:06.044Z,57.69
2018-10-07T08:20:33.639Z,57.95
2018-10-07T08:23:01.307Z,57.93
2018-10-07T08:25:28.977Z,57.87
2018-10-07T08:27:56.637Z,57.62
2018-10-07T08:30:24.215Z,57.58
2018-10-07T08:32:51.832Z,57.64
2018-10-07T08:35:19.738Z,57.98
2018-10-07T08:37:47.332Z,57.52
2018-10-07T08:40:14.999Z,57.57
2018-10-07T08:42:42.639Z,57.62
2018-10-07T08:45:10.301Z,57.51
2018-10-07T08:47:37.921Z,57.45
2018-10-07T08:50:05.623Z,57.74
2018-10-07T08:52:33.203Z,57.49
2018-10-07T08:55:00.857Z,57.42
2018-10-07T08:57:28.494Z,57.42
2018-10-07T08:59:56.138Z,57.53
2018-10-07T09:02:23.819Z,57.41
2018-10-07T09:04:51.417Z,57.24
2018-10-07T09:07:19.071Z,57.10
2018-10-07T09:09:46.672Z,57.42
2018-10-07T09:12:14.266Z,57.45
2018-10-07T09:14:41.995Z,57.31
2018-10-07T09:17:09.615Z,57.23
2018-10-07T09:19:37.232Z,57.03
2018-10-07T09:22:04.875Z,57.05
2018-10-07T09:24:32.543Z,57.12
2018-10-07T09:27:00.228Z,57.12
2018-10-07T09:29:27.825Z,57.18
2018-10-07T09:31:55.495Z,56.79
2018-10-07T09:34:23.079Z,56.88
2018-10-07T09:36:50.707Z,56.91
2018-10-07T09:39:18.350Z,57.16
2018-10-07T09:41:45.944Z,56.65
2018-10-07T09:44:13.571Z,56.79
2018-10-07T09:46:41.353Z,56.46
2018-10-07T09:49:08.967Z,56.60
2018-10-07T09:51:36.638Z,56.45
2018-10-07T09:54:04.330Z,56.54
2018-10-07T09:56:31.936Z,56.39
2018-10-07T09:58:59.588Z,56.26
2018-10-07T10:01:27.225Z,56.48
2018-10-07T10:03:54.915Z,56.28
2018-10-07T10:06:22.497Z,56.28
2018-10-07T10:08:50.160Z,56.43
2018-10-07T10:11:17.879Z,56.23
2018-10-07T10:13:45.413Z,56.05
2018-10-07T10:16:13.077Z,56.06
2018-10-07T10:18:50.840Z,56.07
2018-10-07T10:21:27.995Z,56.00
2018-10-07T10:24:30.486Z,55.87
2018-10-07T10:27:05.562Z,55.84
2018-10-07T10:29:36.148Z,55.82
2018-10-07T10:32:09.837Z,55.83
2018-10-07T10:36:49.140Z,55.84
2018-10-07T10:40:26.847Z,56.01
2018-10-07T10:42:57.587Z,56.10
2018-10-07T10:45:35.009Z,56.08
2018-10-07T10:48:24.429Z,56.00
2018-10-07T10:51:10.488Z,56.06
2018-10-07T10:53:45.381Z,55.91
2018-10-07T10:56:25.622Z,55.99
2018-10-07T10:59:12.070Z,55.85
2018-10-07T11:03:54.316Z,55.66
2018-10-07T11:06:39.059Z,55.78
2018-10-07T11:10:14.622Z,55.46
2018-10-07T11:12:47.121Z,55.34
2018-10-07T11:15:26.638Z,55.31
2018-10-07T11:19:02.926Z,55.40
2018-10-07T11:21:41.931Z,55.25
2018-10-07T11:24:37.753Z,55.53
2018-10-07T11:27:09.761Z,55.36
2018-10-07T11:29:44.230Z,55.17
2018-10-07T11:32:19.413Z,55.41
2018-10-07T11:34:58.824Z,55.48
2018-10-07T11:37:37.830Z,55.36
2018-10-07T11:40:16.804Z,55.34
2018-10-07T11:43:08.510Z,55.23
2018-10-07T11:45:42.317Z,55.19
2018-10-07T11:48:49.151Z,55.15
2018-10-07T11:53:28.512Z,54.89
2018-10-07T11:55:56.189Z,54.72
2018-10-07T11:58:23.779Z,55.15
2018-10-07T12:00:51.376Z,54.77
2018-10-07T12:03:19.001Z,54.94
2018-10-07T12:05:46.644Z,55.03
2018-10-07T12:08:14.364Z,55.23
2018-10-07T12:10:41.969Z,54.57
2018-10-07T12:13:09.593Z,54.69
2018-10-07T12:15:37.241Z,54.62
2018-10-07T12:18:04.911Z,54.54
2018-10-07T12:20:32.561Z,54.49
2018-10-07T12:23:00.194Z,54.52
2018-10-07T12:25:27.824Z,54.62
2018-10-07T12:27:55.476Z,54.25
2018-10-07T12:30:23.099Z,54.29
2018-10-07T12:32:50.716Z,54.44
2018-10-07T12:35:18.299Z,54.38
2018-10-07T12:37:45.932Z,53.92
2018-10-07T12:40:13.570Z,54.21
2018-10-07T12:42:41.243Z,53.97
2018-10-07T12:45:08.916Z,53.47
2018-10-07T12:47:36.541Z,53.82
2018-10-07T12:50:04.336Z,54.18
2018-10-07T12:52:32.107Z,53.64
2018-10-07T12:54:59.743Z,53.54
2018-10-07T12:57:27.404Z,54.17
2018-10-07T12:59:55.002Z,54.35
2018-10-07T13:02:22.648Z,54.14
2018-10-07T13:04:50.248Z,54.06
2018-10-07T13:07:17.823Z,53.59
2018-10-07T13:09:45.496Z,53.54
2018-10-07T13:12:13.136Z,54.11
2018-10-07T13:14:40.786Z,53.84
2018-10-07T13:17:08.376Z,53.75
2018-10-07T13:19:36.058Z,53.93
2018-10-07T13:22:03.623Z,53.38
2018-10-07T13:24:31.241Z,53.56
2018-10-07T13:26:58.855Z,53.28
2018-10-07T13:29:26.480Z,53.30
2018-10-07T13:31:54.072Z,53.00
2018-10-07T13:34:21.748Z,53.22
2018-10-07T13:36:49.400Z,53.38
2018-10-07T13:39:16.983Z,53.14
2018-10-07T13:41:44.625Z,53.70
2018-10-07T13:44:12.195Z,53.74
2018-10-07T13:46:39.843Z,52.91
2018-10-07T13:49:07.508Z,53.44
2018-10-07T13:51:35.181Z,52.72
2018-10-07T13:54:02.832Z,52.03
2018-10-07T13:56:30.504Z,52.10
2018-10-07T13:58:58.169Z,52.18
2018-10-07T14:01:25.920Z,52.32
2018-10-07T14:03:53.551Z,51.68
2018-10-07T14:06:21.160Z,51.76
2018-10-07T14:08:48.755Z,50.88
2018-10-07T14:11:16.423Z,50.63
2018-10-07T14:13:44.014Z,50.36
2018-10-07T14:16:11.685Z,50.35
2018-10-07T14:18:39.334Z,49.94
2018-10-07T14:21:06.995Z,50.17
2018-10-07T14:23:41.451Z,50.27
2018-10-07T14:26:09.099Z,49.93
2018-10-07T14:28:36.707Z,50.65
2018-10-07T14:31:04.316Z,50.94
2018-10-07T14:33:31.920Z,50.77
2018-10-07T14:35:59.517Z,50.11
2018-10-07T14:38:27.133Z,50.17
2018-10-07T14:40:54.765Z,50.46
2018-10-07T14:43:22.372Z,50.39
2018-10-07T14:45:50.024Z,49.86
2018-10-07T14:48:17.622Z,50.25
2018-10-07T14:50:45.271Z,50.35
2018-10-07T14:53:12.965Z,49.81
2018-10-07T14:55:40.581Z,49.80
2018-10-07T14:58:08.174Z,50.04
2018-10-07T15:00:36.069Z,50.20
2018-10-07T15:03:03.737Z,50.24
2018-10-07T15:05:31.359Z,49.47
2018-10-07T15:07:58.995Z,49.95
2018-10-07T15:10:26.633Z,49.75
2018-10-07T15:12:54.296Z,50.58
2018-10-07T15:15:21.926Z,50.67
2018-10-07T15:17:49.556Z,50.68
2018-10-07T15:20:17.219Z,50.69
2018-10-07T15:22:44.868Z,50.46
2018-10-07T15:25:12.761Z,49.86
2018-10-07T15:27:40.363Z,50.76
2018-10-07T15:30:07.998Z,50.50
2018-10-07T15:32:35.672Z,51.38
2018-10-07T15:35:03.351Z,50.91
2018-10-07T15:37:31.021Z,51.61
2018-10-07T15:39:58.652Z,50.99
2018-10-07T15:42:26.253Z,50.88
2018-10-07T15:44:53.915Z,50.78
2018-10-07T15:47:21.571Z,50.86
2018-10-07T15:49:49.159Z,51.10
2018-10-07T15:52:16.909Z,51.97
2018-10-07T15:54:44.588Z,52.14
2018-10-07T15:57:12.225Z,52.25
2018-10-07T15:59:39.893Z,52.23
2018-10-07T16:02:07.562Z,52.16
2018-10-07T16:04:35.217Z,51.83
2018-10-07T16:07:02.848Z,52.30
2018-10-07T16:09:30.442Z,52.79
2018-10-07T16:11:58.023Z,52.20
2018-10-07T16:14:25.637Z,52.92
2018-10-07T16:16:53.309Z,52.43
2018-10-07T16:19:20.999Z,53.15
2018-10-07T16:21:48.628Z,53.34
2018-10-07T16:24:16.286Z,53.60
2018-10-07T16:26:43.995Z,53.30
2018-10-07T16:29:11.613Z,53.84
2018-10-07T16:31:39.246Z,53.40
2018-10-07T16:34:07.099Z,54.02
2018-10-07T16:36:34.754Z,54.29
2018-10-07T16:39:02.530Z,53.92
2018-10-07T16:41:30.137Z,54.18
2018-10-07T16:43:57.816Z,54.75
2018-10-07T16:46:25.393Z,54.75
2018-10-07T16:48:53.003Z,54.76
2018-10-07T16:51:20.629Z,54.43
2018-10-07T16:53:48.284Z,55.03
2018-10-07T16:56:15.867Z,54.94
2018-10-07T16:58:43.495Z,55.20
2018-10-07T17:01:11.114Z,55.00
2018-10-07T17:03:38.756Z,55.39
2018-10-07T17:06:06.376Z,55.28
2018-10-07T17:08:34.025Z,55.41
2018-10-07T17:11:01.668Z,55.27
2018-10-07T17:13:29.402Z,55.46
2018-10-07T17:15:56.969Z,55.50
2018-10-07T17:18:24.625Z,55.67
2018-10-07T17:20:52.269Z,55.80
2018-10-07T17:23:19.881Z,55.73
2018-10-07T17:25:47.540Z,55.85
2018-10-07T17:28:15.171Z,55.84
2018-10-07T17:30:42.789Z,56.13
2018-10-07T17:33:10.416Z,56.23
2018-10-07T17:35:38.135Z,55.90
2018-10-07T17:38:05.810Z,56.13
2018-10-07T17:40:33.408Z,56.23
2018-10-07T17:43:01.064Z,56.24
2018-10-07T17:45:28.685Z,56.25
2018-10-07T17:47:56.268Z,56.20
2018-10-07T17:50:23.884Z,56.44
2018-10-07T17:52:51.624Z,56.45
2018-10-07T17:55:19.341Z,56.52
2018-10-07T17:57:46.924Z,56.55
2018-10-07T18:00:14.685Z,56.41
2018-10-07T18:02:42.596Z,56.60
2018-10-07T18:05:10.176Z,56.69
2018-10-07T18:07:37.756Z,56.60
2018-10-07T18:10:05.364Z,56.71
2018-10-07T18:12:33.061Z,56.95
2018-10-07T18:15:00.687Z,56.59
2018-10-07T18:17:28.417Z,56.85
2018-10-07T18:19:56.055Z,56.94
2018-10-07T18:22:23.725Z,56.84
2018-10-07T18:24:51.344Z,57.05
2018-10-07T18:27:18.951Z,57.06
2018-10-07T18:29:46.620Z,56.92
2018-10-07T18:32:14.330Z,57.10
2018-10-07T18:34:42.141Z,57.21
2018-10-07T18:37:09.708Z,57.07
2018-10-07T18:39:37.357Z,57.18
2018-10-07T18:42:04.978Z,57.31
2018-10-07T18:44:32.661Z,57.16
2018-10-07T18:47:00.352Z,57.12
2018-10-07T18:49:27.991Z,57.27
2018-10-07T18:51:55.680Z,57.58
2018-10-07T18:54:23.341Z,57.33
2018-10-07T18:56:50.983Z,57.41
2018-10-07T18:59:18.929Z,57.56
2018-10-07T19:01:46.593Z,57.27
2018-10-07T19:04:14.219Z,57.36
2018-10-07T19:06:41.961Z,57.64
2018-10-07T19:09:10.757Z,57.39
2018-10-07T19:11:38.397Z,57.57
2018-10-07T19:14:06.093Z,57.62
2018-10-07T19:16:33.802Z,57.65
2018-10-07T19:19:01.465Z,57.66
2018-10-07T19:21:29.195Z,57.65
2018-10-07T19:23:56.879Z,57.73
2018-10-07T19:26:24.479Z,57.65
2018-10-07T19:28:52.173Z,57.71
2018-10-07T19:31:19.821Z,57.86
2018-10-07T19:33:47.509Z,57.88
2018-10-07T19:36:15.149Z,57.84
2018-10-07T19:38:42.798Z,57.85
2018-10-07T19:41:11.352Z,58.10
2018-10-07T19:43:38.980Z,58.10
2018-10-07T19:46:06.584Z,57.83
2018-10-07T19:48:34.290Z,57.89
2018-10-07T19:51:01.974Z,58.02
2018-10-07T19:53:29.693Z,57.61
2018-10-07T19:55:57.489Z,57.86
2018-10-07T19:58:25.241Z,57.78
2018-10-07T20:00:53.029Z,57.93
2018-10-07T20:03:20.652Z,57.72
2018-10-07T20:05:48.325Z,57.98
2018-10-07T20:08:15.993Z,57.87
2018-10-07T20:10:43.645Z,58.21
2018-10-07T20:13:11.367Z,57.98
2018-10-07T20:15:38.997Z,58.15
2018-10-07T20:18:06.690Z,58.00
2018-10-07T20:20:34.370Z,58.12
2018-10-07T20:23:02.020Z,58.22
2018-10-07T20:25:29.661Z,58.19
2018-10-07T20:27:57.346Z,58.19
2018-10-07T20:30:24.937Z,58.06
2018-10-07T20:32:52.552Z,58.10
2018-10-07T20:35:20.239Z,58.15
2018-10-07T20:37:47.954Z,58.34
2018-10-07T20:40:15.662Z,58.39
2018-10-07T20:42:43.311Z,58.34
2018-10-07T20:45:10.945Z,57.82
2018-10-07T20:47:38.593Z,58.31
2018-10-07T20:50:06.289Z,58.58
2018-10-07T20:52:33.991Z,58.18
2018-10-07T20:55:01.635Z,57.97
2018-10-07T20:57:29.310Z,58.58
2018-10-07T20:59:56.979Z,57.99
2018-10-07T21:02:24.687Z,58.05
2018-10-07T21:04:52.353Z,58.74
2018-10-07T21:07:20.014Z,58.75
2018-10-07T21:09:47.658Z,58.61
2018-10-07T21:12:15.261Z,58.79
2018-10-07T21:14:42.972Z,58.64
2018-10-07T21:17:10.762Z,58.47
2018-10-07T21:19:38.327Z,58.57
2018-10-07T21:22:05.955Z,58.39
2018-10-07T21:24:33.640Z,58.48
2018-10-07T21:27:01.251Z,58.38
2018-10-07T21:29:29.003Z,58.50
2018-10-07T21:31:56.656Z,58.83
2018-10-07T21:34:24.335Z,58.40
2018-10-07T21:36:52.009Z,58.32
2018-10-07T21:39:19.625Z,58.06
2018-10-07T21:41:47.608Z,58.57
2018-10-07T21:44:15.132Z,58.29
2018-10-07T21:46:42.814Z,58.48
2018-10-07T21:49:10.503Z,58.46
2018-10-07T21:51:38.150Z,58.51
2018-10-07T21:54:05.781Z,58.59
2018-10-07T21:56:33.470Z,58.58
2018-10-07T21:59:01.087Z,58.70
2018-10-07T22:01:29.215Z,58.72
2018-10-07T22:03:56.876Z,58.45
2018-10-07T22:06:24.533Z,58.66
2018-10-07T22:08:52.157Z,58.78
2018-10-07T22:11:19.793Z,58.82
2018-10-07T22:13:47.547Z,58.59
2018-10-07T22:16:15.200Z,58.51
2018-10-07T22:18:42.828Z,58.57
2018-10-07T22:21:10.687Z,58.35
2018-10-07T22:23:38.384Z,58.64
2018-10-07T22:26:06.122Z,58.91
2018-10-07T22:28:33.728Z,58.69
2018-10-07T22:31:01.383Z,58.68
2018-10-07T22:33:29.093Z,58.99
2018-10-07T22:35:56.700Z,58.85
2018-10-07T22:38:24.338Z,58.44
2018-10-07T22:40:51.997Z,58.34
2018-10-07T22:43:19.691Z,58.42
2018-10-07T22:45:47.286Z,58.65
2018-10-07T22:48:14.908Z,59.00
2018-10-07T22:50:42.595Z,58.92
2018-10-07T22:53:10.265Z,58.89
2018-10-07T22:55:37.992Z,59.16
2018-10-07T22:58:06.269Z,58.90
2018-10-07T23:00:34.036Z,59.17
2018-10-07T23:03:01.661Z,59.13
2018-10-07T23:05:29.362Z,59.11
2018-10-07T23:07:57.003Z,58.49
2018-10-07T23:10:24.670Z,58.60
2018-10-07T23:12:52.352Z,58.55
2018-10-07T23:15:19.992Z,58.54
2018-10-07T23:17:50.970Z,58.46
2018-10-07T23:20:18.592Z,58.65
2018-10-07T23:22:46.221Z,58.52
2018-10-07T23:25:13.976Z,58.72
2018-10-07T23:27:41.599Z,58.62
2018-10-07T23:30:09.253Z,58.79
2018-10-07T23:32:36.981Z,58.86
2018-10-07T23:35:04.623Z,59.35
2018-10-07T23:37:32.265Z,59.24
2018-10-07T23:39:59.949Z,59.00
2018-10-07T23:42:27.671Z,58.60
2018-10-07T23:44:55.324Z,58.88
2018-10-07T23:47:23.073Z,58.71
2018-10-07T23:49:50.667Z,58.74
2018-10-07T23:52:18.339Z,58.77
2018-10-07T23:54:45.925Z,58.90
2018-10-07T23:57:13.633Z,58.89
2018-10-07T23:59:41.273Z,59.12
